• Join FlightAware (Why Join?)
  • Login
  • US Flag 
Trick or treat! (Boo!!) 
03:00AM EDT


 

Airport Tracker/Info


-or-


 

Live Flight TrackerFlight Track Log ✈ IBE6586 ✈ 18-May-2013 ✈ LEMD / MAD - LEBL / BCN

Flight Track Log - Related Links

Times and Time Zones

All times are in EDT time to prevent confusion due to time zone crossing. See the IBE6586 flight status page for this flight to view local times or setup timezone preferences in your user account.

Time Position Orientation Groundspeed Altitude Reporting Facility
EDT Latitude Longitude Course Direction KTS MPH feet Rate Location/Type
06:18AM 40.9888 -0.3405 77° East  Level Estimated
06:19AM 41.0083 -0.1992 80° East  Level Estimated
06:20AM 41.0276 -0.0577 80° East  Level Estimated
06:21AM 41.0468 0.0838 80° East  Level Estimated
06:22AM 41.0658 0.2253 80° East  Level Estimated
06:23AM 41.0845 0.3670 80° East  Level Estimated
06:24AM 41.1032 0.5087 80° East  Level Estimated
06:25AM 41.1216 0.6506 80° East  Level Estimated
06:26AM 41.1399 0.7925 80° East  Level Estimated
06:27AM 41.1580 0.9344 80° East  Level Estimated
06:28AM 41.1759 1.0765 80° East  Level Estimated
06:29AM 41.1936 1.2186 81° East  Level Estimated
06:30AM 41.2112 1.3608 81° East  Level Estimated
06:31AM 41.2286 1.5031 81° East  Level Estimated
06:32AM 41.2458 1.6455 81° East  Level Estimated
06:33AM 41.2629 1.7879 81° East  Level Estimated
06:34AM 41.2798 1.9304 81° East  Level Estimated
06:35AM 41.2965 2.0730 81° East  Level Estimated
06:36AM 41.2971 2.0785 81° East  Level Estimated
06:37AM 41.2971 2.0785 124° Southeast  Level Estimated
06:38AM 41.2971 2.0785 124° Southeast  Level Estimated
06:39AM 41.2971 2.0785 124° Southeast  Level Estimated
06:40AM 41.2971 2.0785 124° Southeast  Level Estimated
06:41AM 41.2971 2.0785 124° Southeast  Level Estimated
06:42AM 41.2971 2.0785 124° Southeast  Level Estimated
06:43AM 41.2971 2.0785 124° Southeast  Level Estimated
06:44AM 41.2971 2.0785 124° Southeast  Level Estimated
06:45AM 41.2971 2.0785 124° Southeast  Level Estimated
06:46AM 41.2971 2.0785 124° Southeast  Level Estimated
06:47AM 41.2971 2.0785 124° Southeast  Level Estimated
06:48AM 41.2971 2.0785 124° Southeast  Level Estimated
06:49AM 41.2971 2.0785 124° Southeast  Level Estimated
06:50AM 41.2971 2.0785 124° Southeast  Level Estimated
06:51AM 41.2971 2.0785 124° Southeast  Level Estimated